IN-0030 weather

Serchhip Helipad
Serchhip, Mizoram, India

Public forecast

Using degrees Celsius for public forecast. Weather courtesy of forecast.io.

METAR (pilot weather report)

Report is more than 6 hours old.

Closest report is Lengpui Airport, 33.4 nm (61.8 km) NNW. Retrieved 2019/08/19 09:00 UTC (6 hours ago):

VELP 190900Z 00000KT 4000 HZ SCT018 BKN100 30/24 Q1008 NOSIG

TAF (pilot weather forecast)

Forecast is more than 6 hours old.

Closest forecast is Shah Amanat International Airport, 86.8 nm (160.7 km) SW. Retrieved 2019/08/19 06:30 UTC (9 hours ago):

TAF TAF VGEG 190500Z 1906/2012 17010KT 5000 SCT015 BKN100 BECMG 1914/1916 21008KT 5000 FEW018 SCT100 BECMG 1920/1922 16005KT 4000 SCT015 SCT100 BECMG 2004/2006 17008KT 5000 SCT015 BKN100